Time;durP1;ratioP1;P1;durP2;ratioP2;P2;SDS_P1;SDS_P2;PMS_P1;PMS_P2;Temp;Humidity;BMP_temperature;BMP_pressure;BME280_temperature;BME280_humidity;BME280_pressure;Samples;Min_cycle;Max_cycle;Signal;HPM_P1;HPM_P2
2023/02/28 00:00:13;;;;;;;4.38;3.58;;;2.40;82.30;;;;;;4965595;28;20033;-63
2023/02/28 00:02:43;;;;;;;4.30;3.33;;;2.40;82.50;;;;;;4972744;28;20089;-61
2023/02/28 00:05:11;;;;;;;4.32;3.58;;;2.40;82.20;;;;;;4971755;28;20027;-63
2023/02/28 00:07:37;;;;;;;4.03;3.63;;;2.40;82.10;;;;;;4971860;28;20035;-52
2023/02/28 00:10:06;;;;;;;4.47;3.78;;;2.30;81.70;;;;;;4972139;28;20043;-49
2023/02/28 00:12:32;;;;;;;3.95;3.45;;;2.40;81.80;;;;;;4971057;28;20093;-49
2023/02/28 00:14:57;;;;;;;5.05;3.88;;;2.30;81.70;;;;;;4966636;28;20034;-46
2023/02/28 00:17:23;;;;;;;3.90;3.50;;;2.40;81.50;;;;;;4968565;28;20458;-53
2023/02/28 00:19:50;;;;;;;3.97;3.47;;;2.30;81.20;;;;;;4972277;28;20090;-56
2023/02/28 00:22:20;;;;;;;3.60;3.30;;;2.30;81.20;;;;;;4967428;28;20446;-47
2023/02/28 00:24:46;;;;;;;3.88;3.25;;;2.30;81.10;;;;;;4969775;28;20082;-51
2023/02/28 00:27:12;;;;;;;3.92;3.30;;;2.30;80.90;;;;;;4969052;28;20389;-50
2023/02/28 00:29:38;;;;;;;4.13;3.63;;;2.30;80.80;;;;;;4974303;28;20037;-51
2023/02/28 00:32:04;;;;;;;4.72;3.45;;;2.30;80.80;;;;;;4971878;28;20023;-58
2023/02/28 00:34:30;;;;;;;4.05;3.47;;;2.30;80.40;;;;;;4971954;28;20066;-61
2023/02/28 00:36:56;;;;;;;3.85;3.45;;;2.20;80.30;;;;;;4981325;28;20042;-61
2023/02/28 00:39:22;;;;;;;4.47;3.20;;;2.20;80.30;;;;;;4971827;28;20031;-61
2023/02/28 00:41:48;;;;;;;3.80;3.40;;;2.20;80.30;;;;;;4971295;28;20034;-60
2023/02/28 00:44:13;;;;;;;3.83;3.42;;;2.20;80.40;;;;;;4971737;28;20134;-59
2023/02/28 00:46:39;;;;;;;3.97;3.28;;;2.20;80.60;;;;;;4975798;28;20038;-55
2023/02/28 00:49:05;;;;;;;3.83;3.33;;;2.20;80.50;;;;;;4967917;28;20393;-56
2023/02/28 00:51:30;;;;;;;4.75;3.38;;;2.20;80.40;;;;;;4972866;28;20106;-60
2023/02/28 00:53:56;;;;;;;4.03;3.15;;;2.20;80.30;;;;;;4971586;28;20097;-60
2023/02/28 00:56:22;;;;;;;4.15;3.40;;;2.20;80.30;;;;;;4972159;28;20081;-62
2023/02/28 00:58:47;;;;;;;3.67;3.10;;;2.10;80.20;;;;;;4970788;28;20426;-62
2023/02/28 01:01:13;;;;;;;3.70;3.20;;;2.10;80.10;;;;;;4976156;28;20035;-64
2023/02/28 01:03:38;;;;;;;3.97;3.50;;;2.10;80.80;;;;;;4976171;28;20027;-64
2023/02/28 01:06:04;;;;;;;4.50;3.20;;;2.00;79.90;;;;;;4975591;28;20042;-63
2023/02/28 01:08:30;;;;;;;4.20;3.50;;;2.00;80.20;;;;;;4976259;28;20030;-61
2023/02/28 01:10:56;;;;;;;4.97;3.78;;;2.00;80.20;;;;;;4975797;28;20030;-62
2023/02/28 01:13:23;;;;;;;3.60;3.30;;;2.00;80.20;;;;;;4976312;28;20037;-62
2023/02/28 01:15:54;;;;;;;5.20;3.70;;;2.00;80.50;;;;;;4971083;28;20117;-61
2023/02/28 01:18:21;;;;;;;3.58;3.28;;;2.00;80.20;;;;;;4975784;28;20055;-61
2023/02/28 01:20:47;;;;;;;4.43;3.50;;;2.00;80.10;;;;;;4970271;28;20043;-60
2023/02/28 01:23:12;;;;;;;3.50;3.20;;;2.10;79.90;;;;;;4968950;28;20186;-61
2023/02/28 01:25:38;;;;;;;3.83;3.35;;;2.10;79.90;;;;;;4974758;28;20105;-59
2023/02/28 01:28:05;;;;;;;4.07;3.22;;;2.10;79.80;;;;;;4975559;28;20056;-59
2023/02/28 01:30:32;;;;;;;3.90;3.35;;;2.10;79.60;;;;;;4975013;28;20027;-61
2023/02/28 01:32:58;;;;;;;3.55;3.25;;;2.10;79.40;;;;;;4962961;28;20045;-61
2023/02/28 01:35:23;;;;;;;5.15;3.42;;;2.10;79.30;;;;;;4973700;28;20428;-61
2023/02/28 01:37:49;;;;;;;3.20;2.90;;;2.10;79.10;;;;;;4982908;28;20122;-60
2023/02/28 01:40:15;;;;;;;3.92;3.35;;;2.10;79.20;;;;;;4975469;28;20114;-60
2023/02/28 01:42:40;;;;;;;3.67;3.35;;;2.10;79.20;;;;;;4975072;28;20118;-60
2023/02/28 01:45:26;;;;;;;4.03;3.10;;;2.10;79.10;;;;;;4974124;28;20038;-60
2023/02/28 01:47:55;;;;;;;3.97;3.35;;;2.20;78.60;;;;;;4974146;28;20122;-60
2023/02/28 01:50:26;;;;;;;4.45;3.50;;;2.20;79.00;;;;;;4973849;28;20089;-59
2023/02/28 01:52:55;;;;;;;4.50;3.38;;;2.20;79.10;;;;;;4974738;28;20031;-61
2023/02/28 01:55:22;;;;;;;4.30;3.58;;;2.20;79.00;;;;;;4975223;28;20441;-61
2023/02/28 01:57:54;;;;;;;4.68;3.45;;;2.20;79.00;;;;;;4975050;28;20039;-61
2023/02/28 02:00:23;;;;;;;3.50;3.10;;;2.20;79.00;;;;;;4975336;28;20037;-52
2023/02/28 02:02:53;;;;;;;4.07;3.25;;;2.20;78.90;;;;;;4974673;28;20110;-52
2023/02/28 02:05:22;;;;;;;4.95;3.67;;;2.30;78.90;;;;;;4972851;28;20034;-52
2023/02/28 02:07:55;;;;;;;3.72;3.33;;;2.20;78.90;;;;;;4971405;28;20062;-52
2023/02/28 02:10:23;;;;;;;4.63;3.63;;;2.20;78.90;;;;;;4974569;28;20043;-52
2023/02/28 02:13:31;;;;;;;4.10;3.35;;;2.20;78.90;;;;;;4974366;28;20027;-54
2023/02/28 02:16:07;;;;;;;4.28;3.67;;;2.20;78.70;;;;;;4965518;28;20106;-51
2023/02/28 02:18:53;;;;;;;4.50;3.63;;;2.20;78.90;;;;;;4974241;28;20038;-51
2023/02/28 02:21:34;;;;;;;4.28;3.60;;;2.20;78.70;;;;;;4972366;28;20054;-62
2023/02/28 02:24:08;;;;;;;4.57;3.63;;;2.20;78.70;;;;;;4969503;28;20077;-60
2023/02/28 02:26:52;;;;;;;5.07;3.83;;;2.20;78.70;;;;;;4973690;28;20046;-61
2023/02/28 02:29:35;;;;;;;5.22;3.80;;;2.10;78.50;;;;;;4963440;28;20054;-61
2023/02/28 02:32:28;;;;;;;5.30;4.03;;;2.10;78.50;;;;;;4974764;28;20106;-58
2023/02/28 02:35:19;;;;;;;4.40;3.70;;;2.10;78.30;;;;;;4966854;28;20045;-58
2023/02/28 02:37:51;;;;;;;5.88;4.03;;;2.00;78.30;;;;;;4976039;28;20027;-53
2023/02/28 02:40:20;;;;;;;;;;;2.00;78.20;;;;;;4974511;28;20045;-55
2023/02/28 02:42:58;;;;;;;5.25;4.03;;;1.90;77.60;;;;;;4969328;28;20645;-52
2023/02/28 02:45:39;;;;;;;5.65;3.88;;;2.00;78.30;;;;;;4973279;28;20026;-49
2023/02/28 02:48:09;;;;;;;5.63;4.13;;;2.00;78.40;;;;;;4977493;28;20073;-51
2023/02/28 02:50:43;;;;;;;5.63;4.75;;;1.90;78.30;;;;;;4974001;28;20105;-60
2023/02/28 02:53:12;;;;;;;6.43;4.53;;;1.90;78.40;;;;;;4974390;28;20027;-61
2023/02/28 02:55:42;;;;;;;4.75;4.00;;;1.90;78.40;;;;;;4966206;28;20035;-61
2023/02/28 02:58:13;;;;;;;5.78;3.90;;;1.90;78.40;;;;;;4971710;28;20513;-60
2023/02/28 03:00:47;;;;;;;5.53;3.92;;;1.90;78.40;;;;;;4973820;28;20046;-52
2023/02/28 03:03:13;;;;;;;4.97;4.00;;;1.90;78.40;;;;;;4973427;28;20437;-55
2023/02/28 03:05:47;;;;;;;5.60;4.38;;;1.90;78.30;;;;;;4972055;28;20023;-62
2023/02/28 03:08:13;;;;;;;5.22;4.03;;;1.90;78.20;;;;;;4971578;28;20097;-63
2023/02/28 03:10:49;;;;;;;5.43;4.05;;;1.80;78.20;;;;;;4974162;28;20496;-62
2023/02/28 03:13:35;;;;;;;6.20;4.43;;;1.90;78.00;;;;;;4973940;28;20030;-62
2023/02/28 03:16:09;;;;;;;5.95;4.50;;;1.80;78.00;;;;;;4970104;28;20070;-61
2023/02/28 03:18:57;;;;;;;5.85;4.10;;;1.80;78.00;;;;;;4970573;28;20106;-63
2023/02/28 03:21:26;;;;;;;4.90;4.07;;;1.80;77.90;;;;;;4966320;28;20421;-59
2023/02/28 03:24:50;;;;;;;4.65;3.90;;;1.80;78.10;;;;;;4972873;28;20038;-61
2023/02/28 03:27:36;;;;;;;4.95;3.83;;;1.80;77.80;;;;;;4892289;29;20142;-60
2023/02/28 03:30:09;;;;;;;4.75;3.72;;;1.80;78.00;;;;;;4969378;28;20039;-61
2023/02/28 03:32:42;;;;;;;5.93;3.95;;;1.80;77.90;;;;;;4966922;28;20031;-60
2023/02/28 03:35:21;;;;;;;4.88;3.60;;;1.90;78.00;;;;;;4973318;28;20073;-62
2023/02/28 03:37:50;;;;;;;6.15;4.18;;;1.90;78.00;;;;;;4976104;28;20041;-59
2023/02/28 03:40:21;;;;;;;4.18;3.50;;;1.90;77.90;;;;;;4973245;28;20045;-59
2023/02/28 03:42:52;;;;;;;5.28;3.97;;;1.90;77.70;;;;;;4979435;28;20446;-60
2023/02/28 03:45:28;;;;;;;4.25;3.53;;;1.90;77.70;;;;;;4972723;28;20034;-60
2023/02/28 03:48:07;;;;;;;4.57;3.70;;;1.90;78.20;;;;;;4975675;28;20189;-60
2023/02/28 03:50:38;;;;;;;4.38;3.70;;;2.00;77.40;;;;;;4971128;28;20038;-60
2023/02/28 03:53:19;;;;;;;4.30;3.70;;;1.90;77.50;;;;;;4973252;28;20034;-62
2023/02/28 03:55:49;;;;;;;4.85;3.90;;;1.90;77.40;;;;;;4973033;28;20018;-62
2023/02/28 03:58:43;;;;;;;4.40;3.72;;;1.90;77.30;;;;;;4968316;28;20038;-60
2023/02/28 04:01:27;;;;;;;4.93;3.97;;;1.90;77.10;;;;;;4971638;28;20033;-60
2023/02/28 04:03:53;;;;;;;4.80;3.60;;;1.90;77.00;;;;;;4968816;28;20031;-61
2023/02/28 04:06:22;;;;;;;4.72;3.60;;;1.90;77.00;;;;;;4966344;28;20027;-58
2023/02/28 04:08:48;;;;;;;4.00;3.60;;;1.90;77.20;;;;;;4971506;28;20482;-58
2023/02/28 04:11:17;;;;;;;5.13;3.83;;;1.90;77.00;;;;;;4972469;28;20031;-58
2023/02/28 04:13:42;;;;;;;4.60;3.67;;;1.90;76.80;;;;;;4972993;28;20038;-58
2023/02/28 04:16:11;;;;;;;4.70;3.90;;;1.90;76.70;;;;;;4969529;28;20039;-50
2023/02/28 04:18:38;;;;;;;4.82;3.80;;;1.90;76.70;;;;;;4971806;28;20061;-54
2023/02/28 04:21:04;;;;;;;5.30;4.00;;;1.90;76.40;;;;;;4972132;28;20417;-59
2023/02/28 04:23:30;;;;;;;5.22;4.03;;;1.90;76.40;;;;;;4970451;28;20141;-61
2023/02/28 04:25:56;;;;;;;4.97;3.92;;;1.80;76.30;;;;;;4970619;28;20117;-60
2023/02/28 04:28:21;;;;;;;5.50;4.43;;;1.90;76.40;;;;;;4971790;28;20469;-60
2023/02/28 04:30:47;;;;;;;4.85;3.97;;;1.90;76.30;;;;;;4972296;28;20035;-50
2023/02/28 04:33:13;;;;;;;5.38;4.13;;;1.90;76.30;;;;;;4968020;28;20034;-56
2023/02/28 04:35:39;;;;;;;3.95;3.38;;;1.90;76.80;;;;;;4974346;28;20088;-59
2023/02/28 04:38:04;;;;;;;5.03;4.38;;;1.90;76.30;;;;;;4976218;28;20031;-58
2023/02/28 04:40:30;;;;;;;4.85;3.78;;;1.90;76.10;;;;;;4964642;28;20370;-64
2023/02/28 04:42:55;;;;;;;4.35;3.78;;;1.90;75.90;;;;;;4974508;28;20397;-64
2023/02/28 04:45:21;;;;;;;5.50;4.00;;;1.90;75.90;;;;;;4974459;28;20441;-55
2023/02/28 04:47:47;;;;;;;4.75;3.80;;;1.90;76.00;;;;;;4978497;28;20037;-57
2023/02/28 04:50:12;;;;;;;6.15;4.13;;;1.90;75.90;;;;;;4975422;28;20106;-59
2023/02/28 04:52:38;;;;;;;4.97;3.97;;;1.90;75.90;;;;;;4976336;28;20023;-62
2023/02/28 04:55:05;;;;;;;5.32;4.07;;;1.90;75.80;;;;;;4974034;28;20031;-62
2023/02/28 04:57:30;;;;;;;5.03;4.10;;;1.90;75.70;;;;;;4975874;28;20035;-62
2023/02/28 04:59:56;;;;;;;4.97;3.97;;;1.90;75.80;;;;;;4976172;28;20042;-62
2023/02/28 05:02:23;;;;;;;5.68;4.40;;;1.90;75.70;;;;;;4976327;28;20027;-59
2023/02/28 05:04:49;;;;;;;5.22;4.30;;;1.90;75.60;;;;;;4976033;28;20038;-58
2023/02/28 05:07:14;;;;;;;7.32;4.15;;;1.90;75.60;;;;;;4975709;28;20034;-61
2023/02/28 05:09:40;;;;;;;4.95;3.78;;;1.90;75.30;;;;;;4974230;28;20042;-61
2023/02/28 05:12:06;;;;;;;5.38;3.83;;;1.90;75.20;;;;;;4973071;28;20054;-62
2023/02/28 05:14:31;;;;;;;4.22;3.80;;;1.90;75.20;;;;;;4967199;28;20417;-63
2023/02/28 05:16:57;;;;;;;5.88;4.20;;;1.90;75.30;;;;;;4975315;28;20046;-61
2023/02/28 05:19:23;;;;;;;4.90;4.05;;;1.90;75.10;;;;;;4974346;28;20077;-61
2023/02/28 05:21:51;;;;;;;5.40;4.25;;;1.90;75.20;;;;;;4975075;28;20043;-62
2023/02/28 05:24:23;;;;;;;4.15;3.70;;;1.90;75.10;;;;;;4963995;28;20043;-62
2023/02/28 05:26:51;;;;;;;5.10;4.18;;;1.90;75.20;;;;;;4973873;28;20035;-54
2023/02/28 05:29:17;;;;;;;6.15;4.50;;;1.80;74.90;;;;;;4973571;28;20440;-53
2023/02/28 05:31:43;;;;;;;5.50;4.20;;;1.90;74.90;;;;;;4975474;28;20117;-55
2023/02/28 05:34:11;;;;;;;4.13;3.70;;;1.80;74.80;;;;;;4975542;28;20043;-56
2023/02/28 05:36:37;;;;;;;4.65;3.78;;;1.80;74.80;;;;;;4981793;28;20026;-64
2023/02/28 05:39:04;;;;;;;4.47;4.07;;;1.90;75.00;;;;;;4972739;28;20385;-65
2023/02/28 05:41:30;;;;;;;5.38;4.13;;;1.90;74.90;;;;;;4982058;28;20038;-60
2023/02/28 05:43:57;;;;;;;5.80;4.60;;;1.90;74.90;;;;;;4971874;28;20370;-59
2023/02/28 05:46:23;;;;;;;4.90;4.10;;;1.90;74.80;;;;;;4973821;28;20050;-61
2023/02/28 05:48:48;;;;;;;5.35;4.10;;;1.90;74.70;;;;;;4973659;28;20069;-60
2023/02/28 05:51:14;;;;;;;6.00;4.25;;;2.00;75.00;;;;;;4966241;28;20033;-59
2023/02/28 05:53:40;;;;;;;5.18;4.20;;;2.00;74.70;;;;;;4966890;28;20151;-59
2023/02/28 05:56:06;;;;;;;4.65;3.95;;;2.00;74.60;;;;;;4965489;28;20058;-59
2023/02/28 05:58:32;;;;;;;5.90;4.55;;;2.00;74.50;;;;;;4969372;28;20039;-60
2023/02/28 06:01:19;;;;;;;5.43;4.32;;;2.00;74.50;;;;;;4973057;28;20525;-60
2023/02/28 06:03:44;;;;;;;4.57;3.72;;;2.00;74.60;;;;;;4974798;28;20041;-61
2023/02/28 06:06:10;;;;;;;6.75;3.92;;;2.00;74.80;;;;;;4975711;28;20516;-61
2023/02/28 06:08:36;;;;;;;4.72;3.60;;;2.10;74.80;;;;;;4978192;28;20034;-60
2023/02/28 06:11:04;;;;;;;5.00;4.03;;;2.10;74.80;;;;;;4973718;28;20102;-60
2023/02/28 06:13:30;;;;;;;4.43;3.72;;;2.10;74.70;;;;;;4972207;28;20035;-60
2023/02/28 06:15:56;;;;;;;4.75;3.95;;;2.10;74.60;;;;;;4971396;28;20433;-60
2023/02/28 06:18:21;;;;;;;5.45;4.10;;;2.20;74.50;;;;;;4965986;28;20046;-60
2023/02/28 06:20:54;;;;;;;4.93;4.10;;;2.20;74.40;;;;;;4973292;28;20744;-59
2023/02/28 06:23:21;;;;;;;4.95;3.75;;;2.20;74.70;;;;;;4967421;28;20116;-60
2023/02/28 06:25:47;;;;;;;4.95;4.20;;;2.20;74.80;;;;;;4964044;28;20039;-60
2023/02/28 06:28:13;;;;;;;5.00;4.03;;;2.30;74.60;;;;;;4965892;28;20493;-61
2023/02/28 06:30:39;;;;;;;4.35;3.67;;;2.30;74.60;;;;;;4967946;28;20030;-61
2023/02/28 06:33:05;;;;;;;4.90;4.07;;;2.30;74.40;;;;;;4965146;28;20509;-61
2023/02/28 06:35:31;;;;;;;5.03;3.55;;;2.30;74.40;;;;;;4973806;28;20037;-60
2023/02/28 06:37:57;;;;;;;4.38;3.90;;;2.30;74.30;;;;;;4967054;28;20033;-60
2023/02/28 06:40:23;;;;;;;4.85;3.90;;;2.40;73.90;;;;;;4968664;28;20026;-62
2023/02/28 06:42:48;;;;;;;4.88;3.78;;;2.40;74.10;;;;;;4966277;28;20497;-60
2023/02/28 06:45:14;;;;;;;5.05;4.13;;;2.40;74.10;;;;;;4966457;28;20437;-61
2023/02/28 06:47:41;;;;;;;5.70;4.20;;;2.40;74.00;;;;;;4959978;28;20065;-61
2023/02/28 06:50:09;;;;;;;5.50;4.10;;;2.40;73.70;;;;;;4961873;28;20035;-61
2023/02/28 06:52:38;;;;;;;5.57;4.00;;;2.40;73.80;;;;;;4967295;28;20073;-59
2023/02/28 06:55:05;;;;;;;4.85;4.00;;;2.40;74.10;;;;;;4963806;28;20056;-60
2023/02/28 06:57:33;;;;;;;6.13;4.10;;;2.40;73.90;;;;;;4954940;28;20372;-60
2023/02/28 07:00:00;;;;;;;5.90;4.15;;;2.50;73.90;;;;;;4963750;28;20041;-60
2023/02/28 07:02:27;;;;;;;4.78;3.83;;;2.50;73.70;;;;;;4973045;28;20038;-60
2023/02/28 07:04:53;;;;;;;5.25;4.00;;;2.50;73.50;;;;;;4964819;28;20035;-60
2023/02/28 07:07:18;;;;;;;4.70;3.83;;;2.50;73.40;;;;;;4966309;28;20038;-61
2023/02/28 07:09:44;;;;;;;4.13;3.72;;;2.60;73.70;;;;;;4970425;28;20477;-60
2023/02/28 07:12:10;;;;;;;4.97;4.00;;;2.50;73.60;;;;;;4968347;28;20071;-59
2023/02/28 07:14:36;;;;;;;5.85;4.40;;;2.60;73.50;;;;;;4969398;28;20182;-60
2023/02/28 07:17:02;;;;;;;4.95;4.18;;;2.60;73.30;;;;;;4961135;28;20039;-59
2023/02/28 07:19:28;;;;;;;4.88;3.95;;;2.60;73.30;;;;;;4964185;28;20568;-60
2023/02/28 07:21:54;;;;;;;4.63;3.75;;;2.60;73.40;;;;;;4964575;28;20057;-60
2023/02/28 07:24:20;;;;;;;4.75;3.83;;;2.60;73.50;;;;;;4955473;28;20030;-61
2023/02/28 07:26:46;;;;;;;5.38;4.10;;;2.70;73.70;;;;;;4961895;28;20158;-60
2023/02/28 07:29:11;;;;;;;5.38;4.22;;;2.70;73.40;;;;;;4976213;28;20033;-61
2023/02/28 07:31:37;;;;;;;5.10;4.22;;;2.80;73.30;;;;;;4966154;28;20027;-60
2023/02/28 07:34:03;;;;;;;5.07;4.00;;;2.80;73.30;;;;;;4962697;28;20069;-61
2023/02/28 07:36:29;;;;;;;5.40;4.00;;;2.90;73.00;;;;;;4962486;28;20456;-62
2023/02/28 07:38:54;;;;;;;4.82;3.90;;;3.00;73.00;;;;;;4963149;28;20044;-62
2023/02/28 07:41:22;;;;;;;5.50;4.13;;;3.10;72.80;;;;;;4960153;28;20030;-60
2023/02/28 07:43:48;;;;;;;4.85;4.05;;;3.20;72.60;;;;;;4962859;28;20037;-60
2023/02/28 07:46:16;;;;;;;7.03;4.47;;;3.30;72.40;;;;;;4959599;28;20035;-60
2023/02/28 07:48:43;;;;;;;5.30;4.30;;;3.30;72.30;;;;;;4951349;28;20046;-61
2023/02/28 07:51:09;;;;;;;5.72;4.28;;;3.40;72.20;;;;;;4959399;28;20125;-61
2023/02/28 07:53:34;;;;;;;6.13;4.57;;;3.50;72.10;;;;;;4956610;28;20022;-60
2023/02/28 07:56:02;;;;;;;5.55;4.70;;;3.60;71.80;;;;;;4960168;28;20094;-60
2023/02/28 07:58:29;;;;;;;5.43;4.55;;;3.70;71.60;;;;;;4958159;28;20039;-58
2023/02/28 08:00:55;;;;;;;5.72;4.50;;;3.70;71.40;;;;;;4954842;28;20039;-60
2023/02/28 08:03:22;;;;;;;5.85;4.90;;;3.80;71.40;;;;;;4954905;28;20046;-62
2023/02/28 08:05:52;;;;;;;5.90;4.75;;;3.80;71.10;;;;;;4960344;28;20027;-60
2023/02/28 08:08:18;;;;;;;5.90;4.85;;;3.80;70.70;;;;;;4958087;28;20050;-60
2023/02/28 08:10:44;;;;;;;5.75;5.15;;;3.80;70.40;;;;;;4963224;28;20622;-60
2023/02/28 08:13:09;;;;;;;7.15;5.65;;;3.80;70.10;;;;;;4956938;28;20382;-60
2023/02/28 08:15:36;;;;;;;6.43;5.45;;;3.80;69.60;;;;;;4953817;28;20112;-59
2023/02/28 08:18:01;;;;;;;7.30;5.88;;;3.80;69.60;;;;;;4952673;28;20039;-59
2023/02/28 08:20:27;;;;;;;7.05;5.90;;;3.80;69.50;;;;;;4952275;28;20807;-60
2023/02/28 08:22:53;;;;;;;7.72;6.50;;;3.80;69.10;;;;;;4946152;28;20054;-58
2023/02/28 08:25:19;;;;;;;9.02;6.63;;;3.80;68.90;;;;;;4941836;28;20081;-59
2023/02/28 08:27:45;;;;;;;7.28;5.95;;;3.70;68.70;;;;;;4950976;28;20489;-57
2023/02/28 08:30:12;;;;;;;8.52;7.15;;;3.70;68.70;;;;;;4950546;28;20046;-59
2023/02/28 08:32:39;;;;;;;8.57;6.70;;;3.70;69.10;;;;;;4953740;28;20033;-59
2023/02/28 08:35:05;;;;;;;7.50;6.38;;;3.70;69.10;;;;;;4945977;28;20057;-60
2023/02/28 08:37:31;;;;;;;7.72;6.60;;;3.70;69.20;;;;;;4953156;28;20039;-59
2023/02/28 08:39:56;;;;;;;8.18;6.95;;;3.70;69.40;;;;;;4951348;28;20046;-60
2023/02/28 08:42:23;;;;;;;7.53;6.72;;;3.80;69.20;;;;;;4949911;28;20319;-59
2023/02/28 08:44:49;;;;;;;9.05;7.10;;;3.80;69.10;;;;;;4947055;28;20054;-58
2023/02/28 08:47:14;;;;;;;8.52;6.68;;;3.80;69.20;;;;;;4951471;28;20492;-59
2023/02/28 08:49:40;;;;;;;8.55;6.90;;;3.80;69.10;;;;;;4943098;28;20936;-60
2023/02/28 08:52:06;;;;;;;8.93;7.30;;;3.80;69.30;;;;;;4944716;28;20058;-60
2023/02/28 08:54:33;;;;;;;8.65;7.50;;;3.80;69.20;;;;;;4947616;28;20043;-59
2023/02/28 08:56:58;;;;;;;8.80;7.88;;;3.80;69.30;;;;;;4951276;28;20129;-59
2023/02/28 08:59:24;;;;;;;8.98;7.22;;;3.90;69.40;;;;;;4955153;28;21119;-59
2023/02/28 09:01:50;;;;;;;7.63;6.78;;;3.80;69.40;;;;;;4952112;28;20060;-58
2023/02/28 09:04:15;;;;;;;10.60;8.75;;;3.90;69.50;;;;;;4951545;28;20073;-60
2023/02/28 09:06:41;;;;;;;11.20;9.05;;;3.80;69.10;;;;;;4952737;28;20042;-60
2023/02/28 09:09:07;;;;;;;10.90;8.70;;;3.80;69.00;;;;;;4957224;28;20030;-58
2023/02/28 09:11:34;;;;;;;10.73;9.38;;;3.80;68.90;;;;;;4956494;28;20488;-58
2023/02/28 09:14:02;;;;;;;11.25;9.48;;;3.80;68.80;;;;;;4955021;28;20037;-58
2023/02/28 09:16:29;;;;;;;9.65;8.35;;;3.80;68.90;;;;;;4961380;28;20035;-58
2023/02/28 09:18:55;;;;;;;9.85;8.55;;;3.80;68.70;;;;;;4957548;28;20481;-57
2023/02/28 09:21:20;;;;;;;10.45;8.50;;;3.80;68.90;;;;;;4955669;28;20126;-58
2023/02/28 09:23:48;;;;;;;10.95;8.65;;;3.70;69.00;;;;;;4947150;28;20045;-57
2023/02/28 09:26:25;;;;;;;10.15;8.65;;;3.80;69.10;;;;;;4968661;28;20038;-58
2023/02/28 09:28:54;;;;;;;10.90;8.70;;;3.70;69.00;;;;;;4962773;28;20501;-58
2023/02/28 09:31:24;;;;;;;10.95;9.40;;;3.70;68.90;;;;;;4956960;28;20038;-58
2023/02/28 09:33:52;;;;;;;10.15;8.02;;;3.70;68.90;;;;;;4954946;28;20035;-59
2023/02/28 09:36:19;;;;;;;7.90;6.65;;;3.70;68.40;;;;;;4964851;28;20034;-60
2023/02/28 09:38:46;;;;;;;9.23;8.10;;;3.70;68.60;;;;;;4954289;28;20039;-59
2023/02/28 09:41:25;;;;;;;9.05;7.53;;;3.70;68.50;;;;;;4957754;28;20062;-60
2023/02/28 09:43:55;;;;;;;7.55;6.78;;;3.80;68.70;;;;;;4956544;28;20035;-56
2023/02/28 09:46:44;;;;;;;7.80;6.45;;;3.70;68.70;;;;;;4962697;28;20102;-60
2023/02/28 09:49:18;;;;;;;9.20;7.43;;;3.70;68.80;;;;;;4958494;28;20676;-60
2023/02/28 09:52:00;;;;;;;7.22;6.38;;;3.80;68.80;;;;;;4966169;28;20050;-57
2023/02/28 09:54:29;;;;;;;7.28;6.00;;;3.70;68.60;;;;;;4958330;28;20027;-58
2023/02/28 09:57:27;;;;;;;7.35;6.38;;;3.80;68.70;;;;;;4958504;28;20772;-59
2023/02/28 09:59:52;;;;;;;7.93;6.20;;;3.80;68.10;;;;;;4955391;28;20057;-60
2023/02/28 10:02:43;;;;;;;6.43;5.32;;;3.80;68.10;;;;;;4951319;28;20026;-59
2023/02/28 10:05:18;;;;;;;6.90;6.00;;;3.80;68.00;;;;;;4951383;28;20027;-57
2023/02/28 10:08:16;;;;;;;10.48;7.63;;;3.80;67.90;;;;;;4962937;28;20501;-59
2023/02/28 10:10:53;;;;;;;8.43;6.50;;;3.80;68.10;;;;;;4949729;28;20063;-60
2023/02/28 10:13:44;;;;;;;8.70;6.82;;;3.70;68.20;;;;;;4954615;28;20113;-59
2023/02/28 10:16:36;;;;;;;8.25;6.40;;;3.70;67.60;;;;;;4955103;28;20046;-60
2023/02/28 10:19:16;;;;;;;8.57;6.15;;;3.70;67.80;;;;;;4950645;28;20046;-58
2023/02/28 10:21:56;;;;;;;6.68;5.55;;;3.70;67.70;;;;;;4961380;28;20051;-59
2023/02/28 10:24:30;;;;;;;8.05;6.90;;;3.70;67.50;;;;;;4956740;28;20035;-60
2023/02/28 10:27:04;;;;;;;7.03;6.22;;;3.70;67.30;;;;;;4961740;28;20039;-59
2023/02/28 10:29:32;;;;;;;7.63;6.43;;;3.70;67.30;;;;;;4953048;28;20042;-59
2023/02/28 10:32:02;;;;;;;8.40;6.43;;;3.60;67.40;;;;;;4961566;28;20035;-59
2023/02/28 10:34:28;;;;;;;9.07;6.72;;;3.60;67.50;;;;;;4947123;28;20042;-59
2023/02/28 10:36:55;;;;;;;7.68;5.68;;;3.50;67.90;;;;;;4951616;28;20046;-58
2023/02/28 10:39:42;;;;;;;8.38;6.30;;;3.40;68.10;;;;;;4954554;28;20434;-58
2023/02/28 10:42:25;;;;;;;7.80;6.20;;;3.40;68.00;;;;;;4958828;28;20023;-60
2023/02/28 10:45:10;;;;;;;7.95;6.28;;;3.30;68.30;;;;;;4956052;28;20043;-60
2023/02/28 10:48:02;;;;;;;8.63;5.95;;;3.30;68.20;;;;;;4957600;28;20031;-60
2023/02/28 10:50:46;;;;;;;;;;;3.30;68.50;;;;;;4951999;28;20146;-58
2023/02/28 10:53:12;;;;;;;8.93;6.60;;;3.20;68.40;;;;;;4945694;28;19994;-59
2023/02/28 10:55:39;;;;;;;9.13;7.43;;;3.20;68.80;;;;;;4954760;28;20074;-61
2023/02/28 10:58:23;;;;;;;9.13;6.90;;;3.20;69.00;;;;;;4960897;28;20466;-60
2023/02/28 11:00:49;;;;;;;9.77;7.82;;;3.20;69.20;;;;;;4948584;28;20022;-60
2023/02/28 11:03:35;;;;;;;9.68;7.20;;;3.20;69.10;;;;;;4945828;28;20031;-60
2023/02/28 11:06:18;;;;;;;8.95;6.82;;;3.20;69.00;;;;;;4952777;28;20580;-59
2023/02/28 11:08:54;;;;;;;9.90;7.57;;;3.20;69.20;;;;;;4953935;28;20026;-60
2023/02/28 11:11:22;;;;;;;8.25;7.15;;;3.20;69.30;;;;;;4955392;28;20035;-61
2023/02/28 11:13:51;;;;;;;7.85;6.95;;;3.30;69.30;;;;;;4953115;28;22035;-60
2023/02/28 11:16:18;;;;;;;8.70;6.80;;;3.30;69.40;;;;;;4952904;28;20090;-60
2023/02/28 11:18:54;;;;;;;9.43;7.68;;;3.30;69.00;;;;;;4959746;28;20093;-60
2023/02/28 11:21:33;;;;;;;8.07;6.60;;;3.40;69.00;;;;;;4945088;28;20039;-60
2023/02/28 11:24:26;;;;;;;10.38;6.85;;;3.40;68.80;;;;;;4952596;28;20023;-61
2023/02/28 11:26:53;;;;;;;7.63;6.10;;;3.40;68.70;;;;;;4942820;28;20032;-57
2023/02/28 11:29:23;;;;;;;7.47;6.05;;;3.50;68.80;;;;;;4950215;28;20537;-58
2023/02/28 11:32:03;;;;;;;8.95;7.45;;;3.50;68.70;;;;;;4954073;28;20039;-58
2023/02/28 11:34:30;;;;;;;9.45;7.47;;;3.50;68.70;;;;;;4957439;28;20465;-58
2023/02/28 11:36:58;;;;;;;9.30;8.07;;;3.50;68.60;;;;;;4951153;28;20062;-59
2023/02/28 11:39:25;;;;;;;10.00;8.35;;;3.60;68.80;;;;;;4958640;28;20090;-56
2023/02/28 11:42:01;;;;;;;8.60;7.70;;;3.60;69.10;;;;;;4958539;28;20034;-60
2023/02/28 11:44:54;;;;;;;9.45;7.82;;;3.80;69.10;;;;;;4962554;28;20026;-60
2023/02/28 11:47:48;;;;;;;8.80;7.60;;;3.80;68.80;;;;;;4953227;28;20049;-60
2023/02/28 11:50:38;;;;;;;13.15;9.90;;;3.90;68.60;;;;;;4951183;28;20441;-61
2023/02/28 11:53:24;;;;;;;12.57;10.63;;;3.90;68.70;;;;;;4949351;28;20047;-59
2023/02/28 11:56:08;;;;;;;12.52;9.82;;;3.90;68.50;;;;;;4958562;28;20034;-57
2023/02/28 11:58:59;;;;;;;12.05;9.30;;;3.90;68.50;;;;;;4960428;28;20039;-61
2023/02/28 12:01:43;;;;;;;12.68;10.10;;;3.90;68.20;;;;;;4960406;28;20133;-60
2023/02/28 12:04:28;;;;;;;11.70;9.45;;;3.80;68.00;;;;;;4955878;28;20174;-59
2023/02/28 12:07:22;;;;;;;10.20;8.43;;;3.80;68.00;;;;;;4960638;28;20042;-59
2023/02/28 12:09:53;;;;;;;10.25;9.15;;;3.80;68.10;;;;;;4991021;28;20066;-59
2023/02/28 12:12:37;;;;;;;11.95;9.30;;;3.70;68.10;;;;;;4953266;28;20118;-59
2023/02/28 12:15:41;;;;;;;10.18;8.63;;;3.70;68.40;;;;;;4950882;28;20062;-59
2023/02/28 12:18:09;;;;;;;9.23;8.23;;;3.60;68.30;;;;;;4957913;28;20545;-58
2023/02/28 12:21:04;;;;;;;8.98;7.90;;;3.70;68.50;;;;;;4957598;28;20118;-60
2023/02/28 12:23:51;;;;;;;10.95;9.18;;;3.70;68.50;;;;;;4959405;28;20070;-60
2023/02/28 12:26:23;;;;;;;10.48;9.13;;;3.60;68.40;;;;;;4953048;28;20023;-59
2023/02/28 12:28:58;;;;;;;9.98;8.45;;;3.60;68.30;;;;;;4943934;28;20039;-58
2023/02/28 12:31:30;;;;;;;11.55;9.23;;;3.60;68.30;;;;;;4951755;28;20199;-58
2023/02/28 12:34:02;;;;;;;9.85;8.25;;;3.60;68.60;;;;;;4955874;28;20039;-59
2023/02/28 12:36:28;;;;;;;;;;;3.50;68.50;;;;;;4960110;28;20603;-57
2023/02/28 12:39:23;;;;;;;10.23;8.45;;;3.40;68.40;;;;;;4961803;28;19914;-60
2023/02/28 12:41:59;;;;;;;8.30;7.38;;;3.50;68.30;;;;;;4953606;28;20045;-61
2023/02/28 12:44:34;;;;;;;8.98;7.10;;;3.50;68.50;;;;;;4958455;28;20114;-60
2023/02/28 12:47:05;;;;;;;9.27;7.50;;;3.50;68.50;;;;;;4958041;28;20038;-60
2023/02/28 12:49:33;;;;;;;8.77;7.18;;;3.50;68.50;;;;;;4956502;28;20034;-62
2023/02/28 12:52:01;;;;;;;8.13;7.07;;;3.50;68.40;;;;;;4953543;28;20027;-60
2023/02/28 12:54:59;;;;;;;9.27;8.25;;;3.50;68.40;;;;;;4953078;28;20046;-60
2023/02/28 12:57:46;;;;;;;9.23;7.82;;;3.50;68.40;;;;;;4934435;28;20043;-60
2023/02/28 13:00:15;;;;;;;8.75;7.43;;;3.50;68.70;;;;;;4953576;28;20038;-59
2023/02/28 13:03:01;;;;;;;8.95;7.97;;;3.50;68.70;;;;;;4955416;28;20046;-59
2023/02/28 13:05:33;;;;;;;7.82;6.97;;;3.60;68.70;;;;;;4955636;28;20163;-60
2023/02/28 13:08:04;;;;;;;9.15;8.15;;;3.60;68.70;;;;;;4960354;28;20065;-60
2023/02/28 13:11:03;;;;;;;9.93;8.27;;;3.60;68.70;;;;;;4954722;28;20039;-59
2023/02/28 13:13:30;;;;;;;8.80;7.30;;;3.60;68.50;;;;;;4939650;28;20031;-61
2023/02/28 13:15:59;;;;;;;10.07;6.78;;;3.70;68.60;;;;;;4956468;28;20572;-59
2023/02/28 13:18:45;;;;;;;9.02;7.53;;;3.70;68.60;;;;;;4962518;28;20041;-60